createdAt,value
2022-10-06T00:00:02.445Z,99367.75
2022-10-06T00:05:24.457Z,99365.66
2022-10-06T00:10:46.297Z,99365.19
2022-10-06T00:16:18.237Z,99373.50
2022-10-06T00:21:39.985Z,99379.94
2022-10-06T00:27:01.796Z,99391.09
2022-10-06T00:32:23.509Z,99387.09
2022-10-06T00:37:45.238Z,99395.28
2022-10-06T00:43:07.075Z,99391.06
2022-10-06T00:48:31.347Z,99403.81
2022-10-06T00:53:53.323Z,99406.47
2022-10-06T00:59:17.769Z,99414.72
2022-10-06T01:04:45.455Z,99421.03
2022-10-06T01:10:07.654Z,99427.75
2022-10-06T01:15:29.576Z,99425.69
2022-10-06T01:21:00.879Z,99431.72
2022-10-06T01:26:24.466Z,99436.59
2022-10-06T01:31:46.309Z,99441.13
2022-10-06T01:37:08.029Z,99443.75
2022-10-06T01:42:32.915Z,99456.28
2022-10-06T01:47:54.712Z,99453.09
2022-10-06T01:53:17.126Z,99461.56
2022-10-06T01:58:38.819Z,99469.06
2022-10-06T02:04:00.617Z,99467.88
2022-10-06T02:09:23.427Z,99468.72
2022-10-06T02:14:45.112Z,99465.97
2022-10-06T02:20:07.114Z,99470.66
2022-10-06T02:25:28.773Z,99482.28
2022-10-06T02:30:50.482Z,99484.50
2022-10-06T02:36:14.267Z,99495.53
2022-10-06T02:41:35.924Z,99509.84
2022-10-06T02:46:57.640Z,99513.50
2022-10-06T02:52:19.504Z,99524.94
2022-10-06T02:57:41.164Z,99528.16
2022-10-06T03:03:02.950Z,99519.31
2022-10-06T03:08:24.724Z,99539.16
2022-10-06T03:13:47.353Z,99548.34
2022-10-06T03:19:10.414Z,99560.28
2022-10-06T03:24:32.390Z,99573.16
2022-10-06T03:29:54.052Z,99587.50
2022-10-06T03:35:15.794Z,99591.28
2022-10-06T03:40:37.470Z,99587.72
2022-10-06T03:46:02.812Z,99599.13
2022-10-06T03:51:27.177Z,99615.28
2022-10-06T03:56:48.866Z,99631.16
2022-10-06T04:02:11.322Z,99635.75
2022-10-06T04:07:33.011Z,99634.13
2022-10-06T04:12:54.669Z,99640.50
2022-10-06T04:18:17.249Z,99640.56
2022-10-06T04:23:39.037Z,99651.84
2022-10-06T04:29:00.728Z,99660.00
2022-10-06T04:34:22.402Z,99658.13
2022-10-06T04:39:44.110Z,99663.03
2022-10-06T04:45:06.791Z,99670.78
2022-10-06T04:50:28.500Z,99664.69
2022-10-06T04:56:06.110Z,99672.22
2022-10-06T05:01:33.489Z,99671.53
2022-10-06T05:06:55.163Z,99692.59
2022-10-06T05:12:16.843Z,99701.06
2022-10-06T05:17:38.542Z,99708.00
2022-10-06T05:23:00.244Z,99711.34
2022-10-06T05:28:23.655Z,99713.63
2022-10-06T05:33:45.959Z,99720.25
2022-10-06T05:39:07.689Z,99733.41
2022-10-06T05:44:29.378Z,99741.81
2022-10-06T05:49:51.143Z,99740.03
2022-10-06T05:55:12.888Z,99742.72
2022-10-06T06:00:34.965Z,99756.59
2022-10-06T06:05:56.651Z,99757.09
2022-10-06T06:11:18.644Z,99773.22
2022-10-06T06:16:42.134Z,99782.28
2022-10-06T06:22:03.850Z,99786.47
2022-10-06T06:27:26.175Z,99790.00
2022-10-06T06:32:47.850Z,99799.47
2022-10-06T06:38:11.681Z,99808.81
2022-10-06T06:43:33.418Z,99816.53
2022-10-06T06:48:55.605Z,99823.69
2022-10-06T06:54:18.152Z,99827.31
2022-10-06T06:59:39.807Z,99841.25
2022-10-06T07:05:01.480Z,99857.22
2022-10-06T07:10:23.137Z,99863.63
2022-10-06T07:16:07.649Z,99876.69
2022-10-06T07:21:47.748Z,99870.50
2022-10-06T07:27:09.963Z,99880.41
2022-10-06T07:32:31.787Z,99884.91
2022-10-06T07:37:53.579Z,99892.97
2022-10-06T07:43:15.429Z,99893.97
2022-10-06T07:48:38.223Z,99899.72
2022-10-06T07:54:01.021Z,99896.25
2022-10-06T07:59:22.685Z,99903.63
2022-10-06T08:04:44.350Z,99904.31
2022-10-06T08:10:06.485Z,99912.69
2022-10-06T08:15:28.164Z,99917.63
2022-10-06T08:20:49.899Z,99922.91
2022-10-06T08:26:13.339Z,99945.34
2022-10-06T08:31:35.035Z,99941.69
2022-10-06T08:37:15.894Z,99956.16
2022-10-06T08:42:42.525Z,99957.00
2022-10-06T08:48:10.410Z,99961.16
2022-10-06T08:53:36.385Z,99962.69
2022-10-06T08:59:04.075Z,99964.31
2022-10-06T09:04:29.461Z,99975.13
2022-10-06T09:10:12.949Z,99974.34
2022-10-06T09:15:43.219Z,99982.00
2022-10-06T09:21:14.140Z,99995.25
2022-10-06T09:26:35.992Z,99993.28
2022-10-06T09:31:57.821Z,99992.91
2022-10-06T09:37:19.608Z,99991.88
2022-10-06T09:42:44.534Z,99995.38
2022-10-06T09:48:23.903Z,100005.66
2022-10-06T09:54:16.957Z,100012.34
2022-10-06T09:59:43.364Z,100019.06
2022-10-06T10:05:27.031Z,100020.78
2022-10-06T10:11:31.262Z,100017.75
2022-10-06T10:16:53.510Z,100012.59
2022-10-06T10:22:23.138Z,100016.25
2022-10-06T10:28:17.376Z,100018.03
2022-10-06T10:33:54.161Z,100004.94
2022-10-06T10:39:42.033Z,99998.16
2022-10-06T10:45:16.746Z,100006.31
2022-10-06T10:50:51.653Z,99996.91
2022-10-06T10:56:16.183Z,99994.69
2022-10-06T11:01:45.350Z,99997.91
2022-10-06T11:07:31.983Z,99985.47
2022-10-06T11:13:19.010Z,99988.28
2022-10-06T11:19:20.931Z,99994.53
2022-10-06T11:24:59.491Z,99995.13
2022-10-06T11:30:26.366Z,99991.34
2022-10-06T11:35:49.077Z,99982.41
2022-10-06T11:41:23.016Z,99979.66
2022-10-06T11:47:01.684Z,99981.25
2022-10-06T11:52:23.282Z,99971.56
2022-10-06T12:04:09.366Z,99965.72
2022-10-06T12:09:45.991Z,99967.78
2022-10-06T12:21:06.175Z,99957.31
2022-10-06T12:26:59.080Z,99959.50
2022-10-06T12:32:56.114Z,99962.97
2022-10-06T12:38:41.253Z,99965.78
2022-10-06T12:44:05.277Z,99960.59
2022-10-06T12:49:36.900Z,99950.03
2022-10-06T12:55:20.994Z,99952.53
2022-10-06T13:00:43.661Z,99947.25
2022-10-06T13:06:08.509Z,99938.34
2022-10-06T13:11:30.248Z,99937.69
2022-10-06T13:16:52.029Z,99936.09
2022-10-06T13:22:14.374Z,99935.72
2022-10-06T13:27:36.358Z,99935.34
2022-10-06T13:32:59.001Z,99934.59
2022-10-06T13:38:21.538Z,99936.19
2022-10-06T13:43:47.285Z,99926.44
2022-10-06T13:49:24.611Z,99930.97
2022-10-06T13:54:50.127Z,99927.63
2022-10-06T14:00:16.215Z,99929.00
2022-10-06T14:05:40.584Z,99921.84
2022-10-06T14:11:06.729Z,99924.34
2022-10-06T14:16:29.450Z,99921.25
2022-10-06T14:21:51.308Z,99906.91
2022-10-06T14:27:12.974Z,99917.34
2022-10-06T14:32:38.496Z,99914.63
2022-10-06T14:38:00.199Z,99903.00
2022-10-06T14:43:21.925Z,99908.81
2022-10-06T14:48:43.641Z,99903.16
2022-10-06T14:54:07.446Z,99905.66
2022-10-06T14:59:29.123Z,99898.25
2022-10-06T15:04:50.850Z,99896.31
2022-10-06T15:10:12.585Z,99897.53
2022-10-06T15:15:34.712Z,99893.22
2022-10-06T15:21:02.763Z,99898.59
2022-10-06T15:26:43.820Z,99894.56
2022-10-06T15:32:06.473Z,99889.47
2022-10-06T15:37:28.574Z,99888.69
2022-10-06T15:42:50.805Z,99885.78
2022-10-06T15:48:12.627Z,99882.88
2022-10-06T15:53:34.302Z,99872.84
2022-10-06T15:58:56.004Z,99871.63
2022-10-06T16:04:34.998Z,99877.28
2022-10-06T16:09:56.748Z,99878.44
2022-10-06T16:15:18.410Z,99873.19
2022-10-06T16:20:40.065Z,99879.22
2022-10-06T16:26:02.195Z,99879.44
2022-10-06T16:31:24.138Z,99884.03
2022-10-06T16:36:46.057Z,99884.56
2022-10-06T16:42:07.718Z,99888.19
2022-10-06T16:47:29.418Z,99894.03
2022-10-06T16:52:51.123Z,99894.97
2022-10-06T16:58:12.797Z,99890.91
2022-10-06T17:03:34.558Z,99894.31
2022-10-06T17:08:56.585Z,99893.66
2022-10-06T17:14:19.593Z,99893.06
2022-10-06T17:19:41.273Z,99890.72
2022-10-06T17:25:03.049Z,99891.56
2022-10-06T17:30:24.743Z,99896.28
2022-10-06T17:35:46.407Z,99908.00
2022-10-06T17:41:17.043Z,99912.19
2022-10-06T17:46:43.876Z,99906.81
2022-10-06T17:52:05.786Z,99909.47
2022-10-06T17:57:29.620Z,99909.38
2022-10-06T18:03:00.130Z,99900.03
2022-10-06T18:08:25.271Z,99906.19
2022-10-06T18:13:47.994Z,99898.44
2022-10-06T18:19:13.138Z,99902.84
2022-10-06T18:24:34.796Z,99903.03
2022-10-06T18:29:56.450Z,99902.09
2022-10-06T18:41:03.451Z,99896.53
2022-10-06T18:46:45.366Z,99888.53
2022-10-06T18:52:07.161Z,99893.97
2022-10-06T18:57:28.887Z,99892.56
2022-10-06T19:02:52.039Z,99891.56
2022-10-06T19:08:13.798Z,99891.56
2022-10-06T19:13:37.118Z,99891.56
2022-10-06T19:18:58.948Z,99900.75
2022-10-06T19:24:21.586Z,99894.22
2022-10-06T19:29:46.856Z,99896.38
2022-10-06T19:35:10.534Z,99894.84
2022-10-06T19:40:32.641Z,99903.78
2022-10-06T19:45:57.955Z,99910.06
2022-10-06T19:51:19.942Z,99900.81
2022-10-06T19:56:42.007Z,99904.19
2022-10-06T20:02:09.695Z,99910.66
2022-10-06T20:07:31.405Z,99898.69
2022-10-06T20:12:53.164Z,99890.09
2022-10-06T20:18:15.767Z,99894.00
2022-10-06T20:23:37.480Z,99894.44
2022-10-06T20:29:01.497Z,99898.09
2022-10-06T20:34:25.754Z,99901.22
2022-10-06T20:40:06.184Z,99899.63
2022-10-06T20:45:29.643Z,99900.34
2022-10-06T20:50:51.369Z,99885.56
2022-10-06T20:56:13.800Z,99888.06
2022-10-06T21:01:37.348Z,99888.72
2022-10-06T21:06:59.529Z,99890.84
2022-10-06T21:12:21.492Z,99878.38
2022-10-06T21:17:47.827Z,99885.41
2022-10-06T21:23:10.195Z,99879.41
2022-10-06T21:28:32.243Z,99881.59
2022-10-06T21:33:55.287Z,99871.06
2022-10-06T21:39:17.329Z,99870.41
2022-10-06T21:44:39.307Z,99864.59
2022-10-06T21:50:01.195Z,99857.50
2022-10-06T21:55:23.154Z,99854.56
2022-10-06T22:00:45.017Z,99844.44
2022-10-06T22:06:09.445Z,99845.88
2022-10-06T22:11:36.888Z,99838.44
2022-10-06T22:16:58.828Z,99829.84
2022-10-06T22:22:20.832Z,99831.44
2022-10-06T22:27:42.876Z,99829.56
2022-10-06T22:33:04.969Z,99830.41
2022-10-06T22:38:27.231Z,99832.53
2022-10-06T22:43:52.092Z,99827.00
2022-10-06T22:49:13.945Z,99815.53
2022-10-06T22:54:35.792Z,99809.94
2022-10-06T22:59:57.719Z,99798.91
2022-10-06T23:05:19.592Z,99793.72
2022-10-06T23:10:41.825Z,99778.88
2022-10-06T23:16:11.101Z,99790.94
2022-10-06T23:21:33.311Z,99770.63
2022-10-06T23:26:58.104Z,99767.75
2022-10-06T23:32:19.965Z,99754.59
2022-10-06T23:37:42.131Z,99754.75
2022-10-06T23:43:04.317Z,99767.75
2022-10-06T23:48:26.332Z,99765.44
2022-10-06T23:53:48.222Z,99757.25
2022-10-06T23:59:10.135Z,99762.56
